createdAt,value
2018-12-01T00:01:45.566Z,44.25
2018-12-01T00:04:13.893Z,44.25
2018-12-01T00:06:42.106Z,43.25
2018-12-01T00:09:10.306Z,44.13
2018-12-01T00:11:38.488Z,42.10
2018-12-01T00:14:06.755Z,42.23
2018-12-01T00:16:34.931Z,41.88
2018-12-01T00:19:02.990Z,41.30
2018-12-01T00:21:31.170Z,39.35
2018-12-01T00:23:59.222Z,39.00
2018-12-01T00:26:27.861Z,38.45
2018-12-01T00:28:56.165Z,38.25
2018-12-01T00:31:24.388Z,38.48
2018-12-01T00:33:52.745Z,38.50
2018-12-01T00:36:21.139Z,37.55
2018-12-01T00:38:49.193Z,37.15
2018-12-01T00:41:17.996Z,38.17
2018-12-01T00:43:46.036Z,36.83
2018-12-01T00:46:14.133Z,35.23
2018-12-01T00:48:42.403Z,36.33
2018-12-01T00:51:10.618Z,32.67
2018-12-01T00:53:38.758Z,32.70
2018-12-01T00:56:06.927Z,33.10
2018-12-01T00:58:35.019Z,32.67
2018-12-01T01:01:03.138Z,31.90
2018-12-01T01:03:31.502Z,32.15
2018-12-01T01:05:59.607Z,30.45
2018-12-01T01:08:27.707Z,30.72
2018-12-01T01:10:56.455Z,31.80
2018-12-01T01:13:24.676Z,29.10
2018-12-01T01:15:52.907Z,29.63
2018-12-01T01:18:21.218Z,30.20
2018-12-01T01:20:49.372Z,30.77
2018-12-01T01:23:17.511Z,30.95
2018-12-01T01:25:45.623Z,30.68
2018-12-01T01:28:13.870Z,31.95
2018-12-01T01:30:42.072Z,31.75
2018-12-01T01:33:21.489Z,32.35
2018-12-01T01:35:49.575Z,31.50
2018-12-01T01:38:18.223Z,30.10
2018-12-01T01:40:46.550Z,31.17
2018-12-01T01:43:14.789Z,33.00
2018-12-01T01:45:42.902Z,32.30
2018-12-01T01:48:10.939Z,31.57
2018-12-01T01:50:39.246Z,32.83
2018-12-01T01:53:07.575Z,33.33
2018-12-01T01:55:35.799Z,33.77
2018-12-01T01:58:04.227Z,32.03
2018-12-01T02:00:32.654Z,33.33
2018-12-01T02:03:00.849Z,32.33
2018-12-01T02:05:29.186Z,32.57
2018-12-01T02:07:57.463Z,32.80
2018-12-01T02:10:25.627Z,32.63
2018-12-01T02:12:53.842Z,30.80
2018-12-01T02:15:21.870Z,32.80
2018-12-01T02:17:49.969Z,32.20
2018-12-01T02:20:18.425Z,31.70
2018-12-01T02:22:46.811Z,30.90
2018-12-01T02:25:15.853Z,30.57
2018-12-01T02:27:44.204Z,30.53
2018-12-01T02:30:14.982Z,32.47
2018-12-01T02:32:43.301Z,29.70
2018-12-01T02:35:16.681Z,31.30
2018-12-01T02:37:44.766Z,32.15
2018-12-01T02:40:13.670Z,30.65
2018-12-01T02:42:42.431Z,31.17
2018-12-01T02:45:21.779Z,29.15
2018-12-01T02:47:49.822Z,30.95
2018-12-01T02:50:22.844Z,29.90
2018-12-01T02:52:51.391Z,31.37
2018-12-01T02:55:19.727Z,31.87
2018-12-01T02:57:47.866Z,30.77
2018-12-01T03:00:16.042Z,31.65
2018-12-01T03:02:44.207Z,28.35
2018-12-01T03:05:12.797Z,30.48
2018-12-01T03:07:41.213Z,31.60
2018-12-01T03:10:11.811Z,30.02
2018-12-01T03:12:40.087Z,30.00
2018-12-01T03:15:25.450Z,28.80
2018-12-01T03:17:53.654Z,29.37
2018-12-01T03:20:21.711Z,29.00
2018-12-01T03:22:49.887Z,31.02
2018-12-01T03:25:20.679Z,30.70
2018-12-01T03:27:49.894Z,29.72
2018-12-01T03:30:18.960Z,31.00
2018-12-01T03:32:48.357Z,31.93
2018-12-01T03:35:16.671Z,32.13
2018-12-01T03:37:46.676Z,31.12
2018-12-01T03:40:15.365Z,30.52
2018-12-01T03:42:43.449Z,31.33
2018-12-01T03:45:14.695Z,30.87
2018-12-01T03:47:42.959Z,30.55
2018-12-01T03:50:12.032Z,31.93
2018-12-01T03:52:40.344Z,31.70
2018-12-01T03:55:22.678Z,32.70
2018-12-01T03:57:50.859Z,32.28
2018-12-01T04:00:23.655Z,31.37
2018-12-01T04:02:51.807Z,32.35
2018-12-01T04:05:20.062Z,31.93
2018-12-01T04:07:48.230Z,31.48
2018-12-01T04:10:16.399Z,32.48
2018-12-01T04:12:44.558Z,31.82
2018-12-01T04:15:12.814Z,31.93
2018-12-01T04:17:41.822Z,29.50
2018-12-01T04:20:10.006Z,30.70
2018-12-01T04:22:38.094Z,30.35
2018-12-01T04:25:07.551Z,30.80
2018-12-01T04:27:35.755Z,30.80
2018-12-01T04:30:08.987Z,29.02
2018-12-01T04:32:37.210Z,30.50
2018-12-01T04:35:05.814Z,29.25
2018-12-01T04:37:33.911Z,30.05
2018-12-01T04:40:01.935Z,30.82
2018-12-01T04:42:30.161Z,29.77
2018-12-01T04:44:58.582Z,29.42
2018-12-01T04:47:26.676Z,30.30
2018-12-01T04:49:54.765Z,28.65
2018-12-01T04:52:22.841Z,28.47
2018-12-01T04:54:50.858Z,29.02
2018-12-01T04:57:19.173Z,28.15
2018-12-01T04:59:47.934Z,27.00
2018-12-01T05:02:16.127Z,28.20
2018-12-01T05:04:44.399Z,27.60
2018-12-01T05:07:12.786Z,27.25
2018-12-01T05:09:40.956Z,28.70
2018-12-01T05:12:09.228Z,27.98
2018-12-01T05:14:38.011Z,27.67
2018-12-01T05:17:12.745Z,28.85
2018-12-01T05:19:40.819Z,28.57
2018-12-01T05:22:08.862Z,27.27
2018-12-01T05:24:37.326Z,28.25
2018-12-01T05:27:07.900Z,26.62
2018-12-01T05:29:36.633Z,26.40
2018-12-01T05:32:06.295Z,28.00
2018-12-01T05:34:34.554Z,26.93
2018-12-01T05:37:02.712Z,27.50
2018-12-01T05:39:31.039Z,29.32
2018-12-01T05:41:59.193Z,28.00
2018-12-01T05:44:27.365Z,29.42
2018-12-01T05:46:57.581Z,27.45
2018-12-01T05:49:25.974Z,27.50
2018-12-01T05:51:54.190Z,27.70
2018-12-01T05:54:23.041Z,27.40
2018-12-01T05:56:51.307Z,28.25
2018-12-01T05:59:19.359Z,26.52
2018-12-01T06:01:47.602Z,27.17
2018-12-01T06:04:15.880Z,26.43
2018-12-01T06:06:44.790Z,27.97
2018-12-01T06:09:13.697Z,26.77
2018-12-01T06:11:41.803Z,25.62
2018-12-01T06:14:10.038Z,26.97
2018-12-01T06:16:38.326Z,25.60
2018-12-01T06:19:06.660Z,26.15
2018-12-01T06:21:34.925Z,25.20
2018-12-01T06:24:03.323Z,24.63
2018-12-01T06:26:31.523Z,25.25
2018-12-01T06:32:07.519Z,24.43
2018-12-01T06:34:35.548Z,22.67
2018-12-01T06:37:03.626Z,22.77
2018-12-01T06:39:31.817Z,21.57
2018-12-01T06:41:59.883Z,20.80
2018-12-01T06:44:28.069Z,21.47
2018-12-01T06:46:56.107Z,20.72
2018-12-01T06:49:24.206Z,20.80
2018-12-01T06:51:52.375Z,19.80
2018-12-01T06:54:20.570Z,19.77
2018-12-01T06:56:48.683Z,18.32
2018-12-01T06:59:17.105Z,19.75
2018-12-01T07:01:45.250Z,17.40
2018-12-01T07:04:13.351Z,17.50
2018-12-01T07:06:41.400Z,18.15
2018-12-01T07:09:10.007Z,18.15
2018-12-01T07:11:38.491Z,18.30
2018-12-01T07:14:07.862Z,18.05
2018-12-01T07:16:36.468Z,17.82
2018-12-01T07:19:19.151Z,18.60
2018-12-01T07:21:47.559Z,17.00
2018-12-01T07:24:15.599Z,18.20
2018-12-01T07:26:43.694Z,18.05
2018-12-01T07:29:12.062Z,19.27
2018-12-01T07:32:55.012Z,18.00
2018-12-01T07:35:23.158Z,19.75
2018-12-01T07:37:51.355Z,18.60
2018-12-01T07:40:19.719Z,18.80
2018-12-01T07:42:47.821Z,17.60
2018-12-01T07:45:16.154Z,18.92
2018-12-01T07:47:44.440Z,18.42
2018-12-01T07:50:13.698Z,18.95
2018-12-01T07:52:43.065Z,18.00
2018-12-01T07:55:11.113Z,18.23
2018-12-01T07:57:39.393Z,18.52
2018-12-01T08:00:11.953Z,18.20
2018-12-01T08:02:40.654Z,18.62
2018-12-01T08:05:09.838Z,17.70
2018-12-01T08:07:38.043Z,18.12
2018-12-01T08:10:09.081Z,17.48
2018-12-01T08:12:37.365Z,17.20
2018-12-01T08:15:08.800Z,17.17
2018-12-01T08:17:36.991Z,17.62
2018-12-01T08:20:07.057Z,17.27
2018-12-01T08:22:35.362Z,18.00
2018-12-01T08:25:03.613Z,17.42
2018-12-01T08:27:31.709Z,17.52
2018-12-01T08:29:59.851Z,17.10
2018-12-01T08:32:28.078Z,16.70
2018-12-01T08:34:56.461Z,16.73
2018-12-01T08:37:24.612Z,16.27
2018-12-01T08:39:52.760Z,16.27
2018-12-01T08:42:21.003Z,15.80
2018-12-01T08:44:49.222Z,16.57
2018-12-01T08:47:17.271Z,15.48
2018-12-01T08:49:45.476Z,16.32
2018-12-01T08:52:13.835Z,15.35
2018-12-01T08:54:41.903Z,16.07
2018-12-01T08:57:10.072Z,15.05
2018-12-01T08:59:38.266Z,15.68
2018-12-01T09:02:06.314Z,14.98
2018-12-01T09:04:34.612Z,15.70
2018-12-01T09:07:02.776Z,16.02
2018-12-01T09:09:30.962Z,17.25
2018-12-01T09:11:59.210Z,16.35
2018-12-01T09:14:27.296Z,16.42
2018-12-01T09:16:55.587Z,17.47
2018-12-01T09:19:23.717Z,16.37
2018-12-01T09:21:51.949Z,16.37
2018-12-01T09:24:20.179Z,15.98
2018-12-01T09:26:48.394Z,16.95
2018-12-01T09:29:16.640Z,15.20
2018-12-01T09:31:44.745Z,16.30
2018-12-01T09:34:12.977Z,17.07
2018-12-01T09:36:41.401Z,16.32
2018-12-01T09:39:10.115Z,14.00
2018-12-01T09:41:38.254Z,12.60
2018-12-01T09:44:06.382Z,13.60
2018-12-01T09:46:34.604Z,12.68
2018-12-01T09:49:02.873Z,12.45
2018-12-01T09:51:30.899Z,12.37
2018-12-01T09:53:59.102Z,13.10
2018-12-01T09:56:27.858Z,12.55
2018-12-01T09:58:55.965Z,12.82
2018-12-01T10:01:24.123Z,12.85
2018-12-01T10:03:52.311Z,12.75
2018-12-01T10:06:20.478Z,12.68
2018-12-01T10:08:48.858Z,12.47
2018-12-01T10:11:17.010Z,13.08
2018-12-01T10:13:45.431Z,12.87
2018-12-01T10:16:13.655Z,13.48
2018-12-01T10:18:41.856Z,12.10
2018-12-01T10:21:10.250Z,12.43
2018-12-01T10:23:38.289Z,13.03
2018-12-01T10:26:06.367Z,12.75
2018-12-01T10:28:34.550Z,12.47
2018-12-01T10:31:02.851Z,12.30
2018-12-01T10:33:31.192Z,12.90
2018-12-01T10:35:59.369Z,14.50
2018-12-01T10:38:27.632Z,14.30
2018-12-01T10:40:55.738Z,12.13
2018-12-01T10:43:23.878Z,11.28
2018-12-01T10:45:52.670Z,10.55
2018-12-01T10:48:20.962Z,13.80
2018-12-01T10:50:49.353Z,11.70
2018-12-01T10:53:17.730Z,12.35
2018-12-01T10:55:45.775Z,10.70
2018-12-01T10:58:18.818Z,10.63
2018-12-01T11:01:54.354Z,10.93
2018-12-01T11:04:28.154Z,9.95
2018-12-01T11:06:56.316Z,11.20
2018-12-01T11:09:24.389Z,10.80
2018-12-01T11:11:52.635Z,10.53
2018-12-01T11:14:21.055Z,10.63
2018-12-01T11:16:49.182Z,10.77
2018-12-01T11:19:17.576Z,11.50
2018-12-01T11:21:45.742Z,10.88
2018-12-01T11:24:13.917Z,11.70
2018-12-01T11:26:41.999Z,10.93
2018-12-01T11:29:10.090Z,10.95
2018-12-01T11:31:38.313Z,11.53
2018-12-01T11:34:06.619Z,10.00
2018-12-01T11:36:34.875Z,10.38
2018-12-01T11:39:03.406Z,10.70
2018-12-01T11:41:31.658Z,10.50
2018-12-01T11:43:59.801Z,11.12
2018-12-01T11:46:28.005Z,10.82
2018-12-01T11:48:56.142Z,10.00
2018-12-01T11:51:26.488Z,11.00
2018-12-01T11:53:55.391Z,9.60
2018-12-01T11:56:24.174Z,8.97
2018-12-01T11:58:52.344Z,10.32
2018-12-01T12:01:20.639Z,9.63
2018-12-01T12:03:48.846Z,9.60
2018-12-01T12:06:17.271Z,9.30
2018-12-01T12:08:45.627Z,9.78
2018-12-01T12:11:13.846Z,11.90
2018-12-01T12:13:42.084Z,10.72
2018-12-01T12:16:10.276Z,11.22
2018-12-01T12:18:38.435Z,12.58
2018-12-01T12:21:06.640Z,11.77
2018-12-01T12:23:35.310Z,12.20
2018-12-01T12:26:03.566Z,11.15
2018-12-01T12:28:32.087Z,10.70
2018-12-01T12:31:00.219Z,9.90
2018-12-01T12:33:28.411Z,9.80
2018-12-01T12:35:56.560Z,8.48
2018-12-01T12:38:24.679Z,7.80
2018-12-01T12:40:53.219Z,7.50
2018-12-01T12:43:21.645Z,7.42
2018-12-01T12:45:50.805Z,7.83
2018-12-01T12:48:18.908Z,6.67
2018-12-01T12:50:47.122Z,7.73
2018-12-01T12:53:20.626Z,8.50
2018-12-01T12:55:48.815Z,9.85
2018-12-01T12:58:17.021Z,9.33
2018-12-01T13:00:45.074Z,8.45
2018-12-01T13:03:13.232Z,7.37
2018-12-01T13:05:46.052Z,7.80
2018-12-01T13:08:18.369Z,9.35
2018-12-01T13:10:46.895Z,9.27
2018-12-01T13:13:14.923Z,9.28
2018-12-01T13:15:43.170Z,8.83
2018-12-01T13:18:13.169Z,9.13
2018-12-01T13:20:42.473Z,9.28
2018-12-01T13:23:10.815Z,8.60
2018-12-01T13:25:39.780Z,8.90
2018-12-01T13:28:20.146Z,9.00
2018-12-01T13:30:49.870Z,8.25
2018-12-01T13:33:18.257Z,9.63
2018-12-01T13:35:46.428Z,8.98
2018-12-01T13:38:14.683Z,9.18
2018-12-01T13:40:42.920Z,9.38
2018-12-01T13:43:11.185Z,9.35
2018-12-01T13:45:39.502Z,9.25
2018-12-01T13:48:08.396Z,8.85
2018-12-01T13:50:36.595Z,8.80
2018-12-01T13:53:06.719Z,9.30
2018-12-01T13:55:34.962Z,7.43
2018-12-01T13:58:04.026Z,6.30
2018-12-01T14:00:32.348Z,6.65
2018-12-01T14:03:00.525Z,7.10
2018-12-01T14:05:28.587Z,9.13
2018-12-01T14:07:56.885Z,7.30
2018-12-01T14:10:27.102Z,7.47
2018-12-01T14:12:56.562Z,6.60
2018-12-01T14:15:24.753Z,6.30
2018-12-01T14:17:52.871Z,6.87
2018-12-01T14:20:21.104Z,6.75
2018-12-01T14:22:50.118Z,6.83
2018-12-01T14:25:19.988Z,7.12
2018-12-01T14:27:52.341Z,7.47
2018-12-01T14:30:20.783Z,6.65
2018-12-01T14:32:49.039Z,7.60
2018-12-01T14:35:19.198Z,8.50
2018-12-01T14:37:48.913Z,8.60
2018-12-01T14:40:17.293Z,9.10
2018-12-01T14:42:45.407Z,8.18
2018-12-01T14:45:14.744Z,7.60
2018-12-01T14:47:42.994Z,7.00
2018-12-01T14:50:12.089Z,9.00
2018-12-01T14:52:40.574Z,7.37
2018-12-01T14:55:17.157Z,8.85
2018-12-01T14:57:46.036Z,9.38
2018-12-01T15:00:22.009Z,11.90
2018-12-01T15:02:50.785Z,10.60
2018-12-01T15:05:19.034Z,10.23
2018-12-01T15:07:47.877Z,11.10
2018-12-01T15:10:17.902Z,10.58
2018-12-01T15:12:46.241Z,10.98
2018-12-01T15:15:16.256Z,10.95
2018-12-01T15:17:44.530Z,10.60
2018-12-01T15:20:20.164Z,10.78
2018-12-01T15:22:49.577Z,11.33
2018-12-01T15:25:20.506Z,10.72
2018-12-01T15:27:48.618Z,11.30
2018-12-01T15:30:19.430Z,11.60
2018-12-01T15:32:49.346Z,12.30
2018-12-01T15:35:17.811Z,23.55
2018-12-01T15:37:46.098Z,23.10
2018-12-01T15:40:16.222Z,18.95
2018-12-01T15:42:44.505Z,16.05
2018-12-01T15:45:14.885Z,15.70
2018-12-01T15:47:43.331Z,15.88
2018-12-01T15:50:13.624Z,14.13
2018-12-01T15:52:42.312Z,17.05
2018-12-01T15:55:11.379Z,15.60
2018-12-01T15:57:39.859Z,17.82
2018-12-01T16:00:12.720Z,18.10
2018-12-01T16:02:41.227Z,18.30
2018-12-01T16:05:10.317Z,18.20
2018-12-01T16:07:38.705Z,15.00
2018-12-01T16:10:14.514Z,13.58
2018-12-01T16:12:43.265Z,14.07
2018-12-01T16:15:24.386Z,12.93
2018-12-01T16:17:52.631Z,14.58
2018-12-01T16:20:20.944Z,17.00
2018-12-01T16:22:49.142Z,20.20
2018-12-01T16:25:18.529Z,20.05
2018-12-01T16:27:47.219Z,17.80
2018-12-01T16:30:26.283Z,18.40
2018-12-01T16:32:56.679Z,18.42
2018-12-01T16:35:25.523Z,19.52
2018-12-01T16:37:53.550Z,17.20
2018-12-01T16:40:32.085Z,17.73
2018-12-01T16:43:01.715Z,23.50
2018-12-01T16:45:29.883Z,17.73
2018-12-01T16:47:58.213Z,17.67
2018-12-01T16:50:26.525Z,17.80
2018-12-01T16:52:54.876Z,18.77
2018-12-01T16:55:22.986Z,23.18
2018-12-01T16:57:51.425Z,19.87
2018-12-01T17:00:20.395Z,16.10
2018-12-01T17:02:51.506Z,18.07
2018-12-01T17:05:20.455Z,19.15
2018-12-01T17:07:48.949Z,24.50
2018-12-01T17:10:18.223Z,25.75
2018-12-01T17:12:47.439Z,24.23
2018-12-01T17:15:18.655Z,25.15
2018-12-01T17:17:47.186Z,24.12
2018-12-01T17:20:16.134Z,28.97
2018-12-01T17:22:48.548Z,24.50
2018-12-01T17:25:17.019Z,25.10
2018-12-01T17:27:45.715Z,24.77
2018-12-01T17:30:17.786Z,22.07
2018-12-01T17:32:46.573Z,23.35
2018-12-01T17:35:15.971Z,23.07
2018-12-01T17:37:45.264Z,22.22
2018-12-01T17:40:16.927Z,22.30
2018-12-01T17:42:47.535Z,22.60
2018-12-01T17:45:15.922Z,23.20
2018-12-01T17:47:44.848Z,23.27
2018-12-01T17:50:15.645Z,24.67
2018-12-01T17:52:45.785Z,30.65
2018-12-01T17:55:14.607Z,33.30
2018-12-01T17:57:43.027Z,22.22
2018-12-01T18:00:23.091Z,21.85
2018-12-01T18:02:53.598Z,22.23
2018-12-01T18:05:23.856Z,21.30
2018-12-01T18:07:52.485Z,21.10
2018-12-01T18:10:20.788Z,20.00
2018-12-01T18:12:48.853Z,18.35
2018-12-01T18:15:17.996Z,20.05
2018-12-01T18:17:46.118Z,18.73
2018-12-01T18:20:17.647Z,18.73
2018-12-01T18:22:50.251Z,19.23
2018-12-01T18:25:18.346Z,18.92
2018-12-01T18:27:47.388Z,19.90
2018-12-01T18:30:19.195Z,18.55
2018-12-01T18:32:48.492Z,20.30
2018-12-01T18:35:16.738Z,19.45
2018-12-01T18:37:44.859Z,21.15
2018-12-01T18:40:19.427Z,21.02
2018-12-01T18:42:47.944Z,20.70
2018-12-01T18:45:17.323Z,23.90
2018-12-01T18:47:45.522Z,26.93
2018-12-01T18:50:15.643Z,24.45
2018-12-01T18:53:00.522Z,22.50
2018-12-01T18:55:30.115Z,20.30
2018-12-01T18:57:58.589Z,18.80
2018-12-01T19:01:00.306Z,18.77
2018-12-01T19:03:29.862Z,19.90
2018-12-01T19:05:58.016Z,20.20
2018-12-01T19:08:26.423Z,21.68
2018-12-01T19:10:54.764Z,20.68
2018-12-01T19:13:22.972Z,21.95
2018-12-01T19:15:51.098Z,20.82
2018-12-01T19:18:19.417Z,21.67
2018-12-01T19:20:47.659Z,20.33
2018-12-01T19:23:16.714Z,22.53
2018-12-01T19:25:46.118Z,26.27
2018-12-01T19:28:14.239Z,22.35
2018-12-01T19:30:42.512Z,21.40
2018-12-01T19:33:15.790Z,21.97
2018-12-01T19:35:44.711Z,21.70
2018-12-01T19:38:16.558Z,21.93
2018-12-01T19:40:45.014Z,20.80
2018-12-01T19:43:13.648Z,20.23
2018-12-01T19:45:41.911Z,22.30
2018-12-01T19:48:10.567Z,32.28
2018-12-01T19:50:40.329Z,25.72
2018-12-01T19:53:10.735Z,23.98
2018-12-01T19:55:38.788Z,27.85
2018-12-01T19:58:12.611Z,21.05
2018-12-01T20:00:42.579Z,21.20
2018-12-01T20:03:13.751Z,21.80
2018-12-01T20:05:42.150Z,21.05
2018-12-01T20:08:10.506Z,22.87
2018-12-01T20:10:41.278Z,21.97
2018-12-01T20:13:15.289Z,25.57
2018-12-01T20:15:48.544Z,46.15
2018-12-01T20:18:18.121Z,23.95
2018-12-01T20:20:46.310Z,36.75
2018-12-01T20:23:14.509Z,30.90
2018-12-01T20:25:43.154Z,32.23
2018-12-01T20:28:11.258Z,22.97
2018-12-01T20:30:39.869Z,25.75
2018-12-01T20:33:08.130Z,26.57
2018-12-01T20:35:40.483Z,27.27
2018-12-01T20:38:13.623Z,25.92
2018-12-01T20:40:41.838Z,25.95
2018-12-01T20:43:10.715Z,26.15
2018-12-01T20:45:40.551Z,23.90
2018-12-01T20:48:08.619Z,21.00
2018-12-01T20:50:38.354Z,20.20
2018-12-01T20:53:07.614Z,21.33
2018-12-01T20:55:36.821Z,19.98
2018-12-01T20:58:07.243Z,20.90
2018-12-01T21:00:35.618Z,22.67
2018-12-01T21:03:04.323Z,22.58
2018-12-01T21:05:32.702Z,20.20
2018-12-01T21:08:02.358Z,19.50
2018-12-01T21:10:31.391Z,18.07
2018-12-01T21:13:00.661Z,17.60
2018-12-01T21:15:29.370Z,18.17
2018-12-01T21:17:57.556Z,19.00
2018-12-01T21:20:25.702Z,15.38
2018-12-01T21:22:54.547Z,15.38
2018-12-01T21:25:25.227Z,15.70
2018-12-01T21:27:54.089Z,15.00
2018-12-01T21:30:26.078Z,14.10
2018-12-01T21:33:02.903Z,13.40
2018-12-01T21:35:33.842Z,12.90
2018-12-01T21:38:02.471Z,12.60
2018-12-01T21:40:36.007Z,12.30
2018-12-01T21:43:15.494Z,11.93
2018-12-01T21:45:45.282Z,11.15
2018-12-01T21:48:23.629Z,11.38
2018-12-01T21:50:53.779Z,11.00
2018-12-01T21:53:24.163Z,10.68
2018-12-01T21:55:54.347Z,10.70
2018-12-01T21:58:23.180Z,9.65
2018-12-01T22:01:02.130Z,9.93
2018-12-01T22:03:43.684Z,11.10
2018-12-01T22:06:16.518Z,9.98
2018-12-01T22:08:45.515Z,10.70
2018-12-01T22:11:18.129Z,10.45
2018-12-01T22:13:46.814Z,10.55
2018-12-01T22:16:18.330Z,9.65
2018-12-01T22:18:48.805Z,9.60
2018-12-01T22:21:18.427Z,9.63
2018-12-01T22:24:07.153Z,10.95
2018-12-01T22:26:36.632Z,9.93
2018-12-01T22:29:05.201Z,11.60
2018-12-01T22:31:33.706Z,11.45
2018-12-01T22:34:01.729Z,16.75
2018-12-01T22:36:30.057Z,11.45
2018-12-01T22:38:58.201Z,15.05
2018-12-01T22:41:26.596Z,17.27
2018-12-01T22:43:54.733Z,13.08
2018-12-01T22:46:23.030Z,12.47
2018-12-01T22:48:51.291Z,12.03
2018-12-01T22:51:19.631Z,10.68
2018-12-01T22:53:48.023Z,11.00
2018-12-01T22:56:16.266Z,10.13
2018-12-01T22:58:45.366Z,9.90
2018-12-01T23:01:13.594Z,10.60
2018-12-01T23:03:41.950Z,8.90
2018-12-01T23:06:10.251Z,9.80
2018-12-01T23:08:38.606Z,9.53
2018-12-01T23:11:06.977Z,8.85
2018-12-01T23:13:35.600Z,7.97
2018-12-01T23:16:03.853Z,7.42
2018-12-01T23:18:31.987Z,7.60
2018-12-01T23:21:00.177Z,7.70
2018-12-01T23:23:28.471Z,7.10
2018-12-01T23:25:56.530Z,7.80
2018-12-01T23:28:24.733Z,7.20
2018-12-01T23:30:55.026Z,7.00
2018-12-01T23:33:24.427Z,7.90
2018-12-01T23:35:52.615Z,7.60
2018-12-01T23:38:20.994Z,7.47
2018-12-01T23:40:49.176Z,7.60
2018-12-01T23:43:17.505Z,8.20
2018-12-01T23:45:46.151Z,8.58
2018-12-01T23:48:14.301Z,7.22
2018-12-01T23:50:52.325Z,6.90
2018-12-01T23:53:20.582Z,6.30
2018-12-01T23:55:48.770Z,6.70
2018-12-01T23:58:17.679Z,6.25
